sensor_id;sensor_type;location;lat;lon;timestamp;pressure;altitude;pressure_sealevel;temperature;humidity
74790;BME280;63318;52.406;13.416;2022-12-07T00:01:12;100931.13;;;3.13;86.97
74790;BME280;63318;52.406;13.416;2022-12-07T00:03:42;100928.70;;;3.14;86.82
74790;BME280;63318;52.406;13.416;2022-12-07T00:06:14;100923.02;;;3.12;86.98
74790;BME280;63318;52.406;13.416;2022-12-07T00:08:42;100924.45;;;3.13;86.86
74790;BME280;63318;52.406;13.416;2022-12-07T00:11:12;100924.11;;;3.12;86.91
74790;BME280;63318;52.406;13.416;2022-12-07T00:13:41;100922.09;;;3.11;86.70
74790;BME280;63318;52.406;13.416;2022-12-07T00:16:11;100917.81;;;3.07;86.59
74790;BME280;63318;52.406;13.416;2022-12-07T00:18:40;100919.37;;;3.04;86.74
74790;BME280;63318;52.406;13.416;2022-12-07T00:21:11;100917.15;;;3.00;86.67
74790;BME280;63318;52.406;13.416;2022-12-07T00:23:41;100919.15;;;2.98;86.86
74790;BME280;63318;52.406;13.416;2022-12-07T00:26:12;100912.92;;;2.94;86.66
74790;BME280;63318;52.406;13.416;2022-12-07T00:28:40;100919.41;;;2.90;86.77
74790;BME280;63318;52.406;13.416;2022-12-07T00:31:10;100917.23;;;2.86;86.63
74790;BME280;63318;52.406;13.416;2022-12-07T00:33:39;100920.02;;;2.84;86.71
74790;BME280;63318;52.406;13.416;2022-12-07T00:36:13;100909.36;;;2.83;86.69
74790;BME280;63318;52.406;13.416;2022-12-07T00:38:42;100908.80;;;2.83;86.65
74790;BME280;63318;52.406;13.416;2022-12-07T00:41:12;100902.52;;;2.82;86.53
74790;BME280;63318;52.406;13.416;2022-12-07T00:43:42;100905.06;;;2.88;86.51
74790;BME280;63318;52.406;13.416;2022-12-07T00:46:11;100899.70;;;2.89;86.39
74790;BME280;63318;52.406;13.416;2022-12-07T00:48:40;100897.75;;;2.89;86.23
74790;BME280;63318;52.406;13.416;2022-12-07T00:51:10;100896.77;;;2.86;86.31
74790;BME280;63318;52.406;13.416;2022-12-07T00:53:39;100895.53;;;2.83;86.20
74790;BME280;63318;52.406;13.416;2022-12-07T00:56:08;100893.63;;;2.82;86.14
74790;BME280;63318;52.406;13.416;2022-12-07T00:58:37;100890.27;;;2.78;86.25
74790;BME280;63318;52.406;13.416;2022-12-07T01:01:07;100887.50;;;2.75;86.03
74790;BME280;63318;52.406;13.416;2022-12-07T01:03:36;100885.55;;;2.71;85.99
74790;BME280;63318;52.406;13.416;2022-12-07T01:06:06;100881.06;;;2.65;85.84
74790;BME280;63318;52.406;13.416;2022-12-07T01:08:34;100885.30;;;2.60;85.81
74790;BME280;63318;52.406;13.416;2022-12-07T01:11:05;100885.47;;;2.54;85.77
74790;BME280;63318;52.406;13.416;2022-12-07T01:13:35;100885.11;;;2.47;85.58
74790;BME280;63318;52.406;13.416;2022-12-07T01:16:05;100884.60;;;2.42;85.63
74790;BME280;63318;52.406;13.416;2022-12-07T01:18:36;100880.52;;;2.37;85.55
74790;BME280;63318;52.406;13.416;2022-12-07T01:21:07;100881.27;;;2.33;85.78
74790;BME280;63318;52.406;13.416;2022-12-07T01:23:36;100880.39;;;2.30;85.27
74790;BME280;63318;52.406;13.416;2022-12-07T01:26:06;100877.62;;;2.26;85.50
74790;BME280;63318;52.406;13.416;2022-12-07T01:28:35;100877.42;;;2.22;85.42
74790;BME280;63318;52.406;13.416;2022-12-07T01:31:07;100868.88;;;2.18;85.48
74790;BME280;63318;52.406;13.416;2022-12-07T01:33:37;100871.00;;;2.13;85.35
74790;BME280;63318;52.406;13.416;2022-12-07T01:36:07;100866.20;;;2.12;85.42
74790;BME280;63318;52.406;13.416;2022-12-07T01:38:36;100863.39;;;2.19;85.25
74790;BME280;63318;52.406;13.416;2022-12-07T01:41:04;100858.84;;;2.22;85.33
74790;BME280;63318;52.406;13.416;2022-12-07T01:43:34;100859.35;;;2.21;85.09
74790;BME280;63318;52.406;13.416;2022-12-07T01:46:03;100855.80;;;2.21;85.35
74790;BME280;63318;52.406;13.416;2022-12-07T01:48:34;100860.09;;;2.25;85.53
74790;BME280;63318;52.406;13.416;2022-12-07T01:51:10;100860.10;;;2.30;85.44
74790;BME280;63318;52.406;13.416;2022-12-07T01:53:42;100856.80;;;2.33;85.60
74790;BME280;63318;52.406;13.416;2022-12-07T01:56:17;100852.48;;;2.38;85.32
74790;BME280;63318;52.406;13.416;2022-12-07T01:58:48;100849.27;;;2.40;85.49
74790;BME280;63318;52.406;13.416;2022-12-07T02:01:17;100844.05;;;2.34;85.40
74790;BME280;63318;52.406;13.416;2022-12-07T02:03:46;100834.92;;;2.31;85.81
74790;BME280;63318;52.406;13.416;2022-12-07T02:06:19;100837.55;;;2.31;85.59
74790;BME280;63318;52.406;13.416;2022-12-07T02:08:48;100835.60;;;2.32;85.69
74790;BME280;63318;52.406;13.416;2022-12-07T02:11:17;100834.95;;;2.33;85.65
74790;BME280;63318;52.406;13.416;2022-12-07T02:13:47;100831.98;;;2.32;85.41
74790;BME280;63318;52.406;13.416;2022-12-07T02:16:23;100831.94;;;2.31;85.32
74790;BME280;63318;52.406;13.416;2022-12-07T02:19:05;100831.98;;;2.30;85.28
74790;BME280;63318;52.406;13.416;2022-12-07T02:21:45;100829.52;;;2.25;85.03
74790;BME280;63318;52.406;13.416;2022-12-07T02:24:28;100828.63;;;2.16;84.81
74790;BME280;63318;52.406;13.416;2022-12-07T02:27:16;100828.79;;;2.08;84.77
74790;BME280;63318;52.406;13.416;2022-12-07T02:29:55;100824.95;;;2.01;85.12
74790;BME280;63318;52.406;13.416;2022-12-07T02:32:33;100824.67;;;1.95;84.90
74790;BME280;63318;52.406;13.416;2022-12-07T02:35:11;100822.46;;;1.89;84.90
74790;BME280;63318;52.406;13.416;2022-12-07T02:37:46;100817.38;;;1.82;84.83
74790;BME280;63318;52.406;13.416;2022-12-07T02:40:20;100812.21;;;1.75;84.99
74790;BME280;63318;52.406;13.416;2022-12-07T02:42:53;100814.23;;;1.75;85.02
74790;BME280;63318;52.406;13.416;2022-12-07T02:45:22;100811.87;;;1.81;84.43
74790;BME280;63318;52.406;13.416;2022-12-07T02:47:53;100806.58;;;1.77;84.79
74790;BME280;63318;52.406;13.416;2022-12-07T02:50:24;100805.11;;;1.84;84.73
74790;BME280;63318;52.406;13.416;2022-12-07T02:52:52;100801.77;;;1.86;84.42
74790;BME280;63318;52.406;13.416;2022-12-07T02:55:25;100799.71;;;1.87;84.53
74790;BME280;63318;52.406;13.416;2022-12-07T02:58:05;100799.88;;;1.88;84.89
74790;BME280;63318;52.406;13.416;2022-12-07T03:00:42;100800.06;;;1.93;85.01
74790;BME280;63318;52.406;13.416;2022-12-07T03:03:13;100795.73;;;1.93;85.27
74790;BME280;63318;52.406;13.416;2022-12-07T03:05:59;100786.77;;;1.89;85.26
74790;BME280;63318;52.406;13.416;2022-12-07T03:08:42;100777.30;;;1.85;85.11
74790;BME280;63318;52.406;13.416;2022-12-07T03:11:16;100778.30;;;1.80;85.24
74790;BME280;63318;52.406;13.416;2022-12-07T03:13:45;100776.89;;;1.73;85.31
74790;BME280;63318;52.406;13.416;2022-12-07T03:16:18;100775.13;;;1.69;85.42
74790;BME280;63318;52.406;13.416;2022-12-07T03:18:51;100773.46;;;1.65;85.36
74790;BME280;63318;52.406;13.416;2022-12-07T03:21:24;100772.36;;;1.64;85.36
74790;BME280;63318;52.406;13.416;2022-12-07T03:23:55;100765.85;;;1.61;85.06
74790;BME280;63318;52.406;13.416;2022-12-07T03:26:28;100759.33;;;1.58;85.23
74790;BME280;63318;52.406;13.416;2022-12-07T03:29:01;100753.39;;;1.55;85.08
74790;BME280;63318;52.406;13.416;2022-12-07T03:31:34;100744.95;;;1.53;85.31
74790;BME280;63318;52.406;13.416;2022-12-07T03:34:10;100744.02;;;1.57;84.97
74790;BME280;63318;52.406;13.416;2022-12-07T03:36:44;100746.25;;;1.66;84.80
74790;BME280;63318;52.406;13.416;2022-12-07T03:39:20;100743.88;;;1.69;85.02
74790;BME280;63318;52.406;13.416;2022-12-07T03:41:50;100730.42;;;1.72;85.15
74790;BME280;63318;52.406;13.416;2022-12-07T03:44:20;100724.30;;;1.74;85.13
74790;BME280;63318;52.406;13.416;2022-12-07T03:46:55;100719.99;;;1.78;85.32
74790;BME280;63318;52.406;13.416;2022-12-07T03:49:30;100716.38;;;1.79;85.33
74790;BME280;63318;52.406;13.416;2022-12-07T03:52:05;100713.75;;;1.80;85.59
74790;BME280;63318;52.406;13.416;2022-12-07T03:54:40;100708.79;;;1.78;85.80
74790;BME280;63318;52.406;13.416;2022-12-07T03:57:11;100698.98;;;1.75;85.73
74790;BME280;63318;52.406;13.416;2022-12-07T03:59:41;100694.39;;;1.74;85.69
74790;BME280;63318;52.406;13.416;2022-12-07T04:02:13;100693.30;;;1.75;85.82
74790;BME280;63318;52.406;13.416;2022-12-07T04:04:42;100690.48;;;1.74;85.75
74790;BME280;63318;52.406;13.416;2022-12-07T04:07:11;100688.39;;;1.73;85.68
74790;BME280;63318;52.406;13.416;2022-12-07T04:09:40;100685.06;;;1.70;85.71
74790;BME280;63318;52.406;13.416;2022-12-07T04:12:08;100681.62;;;1.70;85.65
74790;BME280;63318;52.406;13.416;2022-12-07T04:14:36;100680.08;;;1.66;85.53
74790;BME280;63318;52.406;13.416;2022-12-07T04:17:05;100679.00;;;1.62;85.69
74790;BME280;63318;52.406;13.416;2022-12-07T04:19:34;100682.93;;;1.60;85.85
74790;BME280;63318;52.406;13.416;2022-12-07T04:22:03;100684.91;;;1.58;85.88
74790;BME280;63318;52.406;13.416;2022-12-07T04:24:33;100681.27;;;1.55;85.73
74790;BME280;63318;52.406;13.416;2022-12-07T04:27:02;100679.67;;;1.52;85.55
74790;BME280;63318;52.406;13.416;2022-12-07T04:29:30;100675.27;;;1.51;85.39
74790;BME280;63318;52.406;13.416;2022-12-07T04:31:58;100670.39;;;1.57;85.20
74790;BME280;63318;52.406;13.416;2022-12-07T04:34:27;100671.40;;;1.49;85.41
74790;BME280;63318;52.406;13.416;2022-12-07T04:36:55;100665.67;;;1.50;85.14
74790;BME280;63318;52.406;13.416;2022-12-07T04:39:25;100658.27;;;1.56;85.49
74790;BME280;63318;52.406;13.416;2022-12-07T04:41:54;100654.81;;;1.58;85.43
74790;BME280;63318;52.406;13.416;2022-12-07T04:44:24;100650.97;;;1.60;85.73
74790;BME280;63318;52.406;13.416;2022-12-07T04:46:53;100649.81;;;1.64;85.69
74790;BME280;63318;52.406;13.416;2022-12-07T04:49:22;100646.89;;;1.68;85.90
74790;BME280;63318;52.406;13.416;2022-12-07T04:51:51;100642.52;;;1.72;85.87
74790;BME280;63318;52.406;13.416;2022-12-07T04:54:20;100643.98;;;1.77;86.37
74790;BME280;63318;52.406;13.416;2022-12-07T04:56:49;100643.38;;;1.77;86.36
74790;BME280;63318;52.406;13.416;2022-12-07T04:59:18;100638.20;;;1.77;86.81
74790;BME280;63318;52.406;13.416;2022-12-07T05:01:46;100633.52;;;1.76;86.59
74790;BME280;63318;52.406;13.416;2022-12-07T05:04:14;100633.30;;;1.75;86.80
74790;BME280;63318;52.406;13.416;2022-12-07T05:06:42;100630.11;;;1.76;86.64
74790;BME280;63318;52.406;13.416;2022-12-07T05:09:11;100626.84;;;1.74;86.72
74790;BME280;63318;52.406;13.416;2022-12-07T05:11:39;100626.22;;;1.72;86.76
74790;BME280;63318;52.406;13.416;2022-12-07T05:14:10;100629.25;;;1.71;86.65
74790;BME280;63318;52.406;13.416;2022-12-07T05:16:39;100625.81;;;1.70;86.74
74790;BME280;63318;52.406;13.416;2022-12-07T05:19:07;100625.69;;;1.70;86.49
74790;BME280;63318;52.406;13.416;2022-12-07T05:21:36;100623.30;;;1.67;86.39
74790;BME280;63318;52.406;13.416;2022-12-07T05:24:06;100620.50;;;1.70;86.55
74790;BME280;63318;52.406;13.416;2022-12-07T05:26:34;100614.79;;;1.83;86.30
74790;BME280;63318;52.406;13.416;2022-12-07T05:29:03;100613.90;;;1.83;86.52
74790;BME280;63318;52.406;13.416;2022-12-07T05:31:31;100614.02;;;1.85;86.44
74790;BME280;63318;52.406;13.416;2022-12-07T05:34:00;100609.55;;;1.89;86.51
74790;BME280;63318;52.406;13.416;2022-12-07T05:36:28;100612.59;;;1.93;86.63
74790;BME280;63318;52.406;13.416;2022-12-07T05:38:57;100610.61;;;1.95;86.67
74790;BME280;63318;52.406;13.416;2022-12-07T05:41:25;100605.04;;;2.01;86.78
74790;BME280;63318;52.406;13.416;2022-12-07T05:43:54;100605.90;;;2.06;86.73
74790;BME280;63318;52.406;13.416;2022-12-07T05:46:22;100604.51;;;2.11;86.76
74790;BME280;63318;52.406;13.416;2022-12-07T05:48:51;100606.33;;;2.16;87.22
74790;BME280;63318;52.406;13.416;2022-12-07T05:51:20;100603.27;;;2.25;86.90
74790;BME280;63318;52.406;13.416;2022-12-07T05:53:48;100601.60;;;2.30;87.21
74790;BME280;63318;52.406;13.416;2022-12-07T05:56:16;100597.67;;;2.30;87.02
74790;BME280;63318;52.406;13.416;2022-12-07T05:58:44;100596.48;;;2.30;87.28
74790;BME280;63318;52.406;13.416;2022-12-07T06:01:12;100596.48;;;2.28;87.22
74790;BME280;63318;52.406;13.416;2022-12-07T06:03:41;100590.21;;;2.26;87.27
74790;BME280;63318;52.406;13.416;2022-12-07T06:06:09;100590.48;;;2.24;87.08
74790;BME280;63318;52.406;13.416;2022-12-07T06:08:37;100584.77;;;2.22;86.92
74790;BME280;63318;52.406;13.416;2022-12-07T06:11:05;100579.26;;;2.21;87.27
74790;BME280;63318;52.406;13.416;2022-12-07T06:13:34;100579.70;;;2.32;86.78
74790;BME280;63318;52.406;13.416;2022-12-07T06:16:02;100575.73;;;2.33;86.77
74790;BME280;63318;52.406;13.416;2022-12-07T06:18:30;100570.33;;;2.34;86.81
74790;BME280;63318;52.406;13.416;2022-12-07T06:20:58;100570.27;;;2.37;86.96
74790;BME280;63318;52.406;13.416;2022-12-07T06:23:26;100562.48;;;2.39;87.11
74790;BME280;63318;52.406;13.416;2022-12-07T06:25:55;100563.52;;;2.41;87.18
74790;BME280;63318;52.406;13.416;2022-12-07T06:28:24;100562.08;;;2.44;87.07
74790;BME280;63318;52.406;13.416;2022-12-07T06:30:59;100561.45;;;2.50;87.16
74790;BME280;63318;52.406;13.416;2022-12-07T06:33:27;100564.32;;;2.57;87.25
74790;BME280;63318;52.406;13.416;2022-12-07T06:35:56;100563.17;;;2.63;87.29
74790;BME280;63318;52.406;13.416;2022-12-07T06:38:26;100564.30;;;2.67;87.46
74790;BME280;63318;52.406;13.416;2022-12-07T06:40:54;100561.31;;;2.66;87.37
74790;BME280;63318;52.406;13.416;2022-12-07T06:43:22;100565.70;;;2.67;87.36
74790;BME280;63318;52.406;13.416;2022-12-07T06:45:51;100562.69;;;2.67;87.57
74790;BME280;63318;52.406;13.416;2022-12-07T06:48:19;100561.12;;;2.67;87.36
74790;BME280;63318;52.406;13.416;2022-12-07T06:50:47;100559.46;;;2.65;87.58
74790;BME280;63318;52.406;13.416;2022-12-07T06:53:16;100565.41;;;2.62;87.34
74790;BME280;63318;52.406;13.416;2022-12-07T06:55:44;100564.88;;;2.60;87.47
74790;BME280;63318;52.406;13.416;2022-12-07T06:58:12;100560.24;;;2.56;87.48
74790;BME280;63318;52.406;13.416;2022-12-07T07:00:41;100557.56;;;2.54;87.58
74790;BME280;63318;52.406;13.416;2022-12-07T07:03:09;100554.25;;;2.53;87.63
74790;BME280;63318;52.406;13.416;2022-12-07T07:05:37;100557.55;;;2.55;87.58
74790;BME280;63318;52.406;13.416;2022-12-07T07:08:06;100557.92;;;2.65;87.35
74790;BME280;63318;52.406;13.416;2022-12-07T07:10:34;100556.61;;;2.68;87.04
74790;BME280;63318;52.406;13.416;2022-12-07T07:13:02;100559.19;;;2.72;87.23
74790;BME280;63318;52.406;13.416;2022-12-07T07:15:31;100557.58;;;2.77;87.30
74790;BME280;63318;52.406;13.416;2022-12-07T07:18:00;100558.78;;;2.82;87.27
74790;BME280;63318;52.406;13.416;2022-12-07T07:20:28;100558.59;;;2.88;87.38
74790;BME280;63318;52.406;13.416;2022-12-07T07:22:57;100562.48;;;2.94;87.51
74790;BME280;63318;52.406;13.416;2022-12-07T07:25:25;100559.62;;;3.01;87.74
74790;BME280;63318;52.406;13.416;2022-12-07T07:27:53;100559.90;;;3.09;87.73
74790;BME280;63318;52.406;13.416;2022-12-07T07:30:22;100560.19;;;3.13;87.70
74790;BME280;63318;52.406;13.416;2022-12-07T07:32:51;100557.16;;;3.15;87.80
74790;BME280;63318;52.406;13.416;2022-12-07T07:35:19;100557.85;;;3.20;88.04
74790;BME280;63318;52.406;13.416;2022-12-07T07:37:47;100555.14;;;3.24;88.02
74790;BME280;63318;52.406;13.416;2022-12-07T07:40:15;100559.48;;;3.24;87.85
74790;BME280;63318;52.406;13.416;2022-12-07T07:42:46;100561.94;;;3.24;87.72
74790;BME280;63318;52.406;13.416;2022-12-07T07:45:14;100557.18;;;3.22;87.61
74790;BME280;63318;52.406;13.416;2022-12-07T07:47:43;100555.75;;;3.19;87.57
74790;BME280;63318;52.406;13.416;2022-12-07T07:50:11;100556.89;;;3.15;87.49
74790;BME280;63318;52.406;13.416;2022-12-07T07:52:40;100554.45;;;3.12;87.54
74790;BME280;63318;52.406;13.416;2022-12-07T07:55:08;100558.41;;;3.12;87.51
74790;BME280;63318;52.406;13.416;2022-12-07T07:57:37;100557.53;;;3.22;87.28
74790;BME280;63318;52.406;13.416;2022-12-07T08:00:10;100558.02;;;3.26;87.07
74790;BME280;63318;52.406;13.416;2022-12-07T08:02:37;100557.80;;;3.27;87.31
74790;BME280;63318;52.406;13.416;2022-12-07T08:05:07;100553.64;;;3.28;87.09
74790;BME280;63318;52.406;13.416;2022-12-07T08:07:35;100560.66;;;3.31;87.28
74790;BME280;63318;52.406;13.416;2022-12-07T08:10:04;100559.34;;;3.35;87.30
74790;BME280;63318;52.406;13.416;2022-12-07T08:12:37;100557.29;;;3.40;87.35
74790;BME280;63318;52.406;13.416;2022-12-07T08:15:06;100563.45;;;3.42;87.47
74790;BME280;63318;52.406;13.416;2022-12-07T08:17:35;100562.05;;;3.46;87.87
74790;BME280;63318;52.406;13.416;2022-12-07T08:20:05;100569.22;;;3.48;87.82
74790;BME280;63318;52.406;13.416;2022-12-07T08:22:33;100568.68;;;3.49;87.80
74790;BME280;63318;52.406;13.416;2022-12-07T08:25:02;100567.59;;;3.49;87.71
74790;BME280;63318;52.406;13.416;2022-12-07T08:27:30;100571.94;;;3.47;87.68
74790;BME280;63318;52.406;13.416;2022-12-07T08:29:59;100565.52;;;3.43;87.58
74790;BME280;63318;52.406;13.416;2022-12-07T08:32:27;100575.55;;;3.39;87.52
74790;BME280;63318;52.406;13.416;2022-12-07T08:34:55;100576.81;;;3.35;87.53
74790;BME280;63318;52.406;13.416;2022-12-07T08:37:24;100573.27;;;3.46;87.32
74790;BME280;63318;52.406;13.416;2022-12-07T08:39:52;100572.59;;;3.47;87.17
74790;BME280;63318;52.406;13.416;2022-12-07T08:42:21;100575.83;;;3.53;87.09
74790;BME280;63318;52.406;13.416;2022-12-07T08:44:49;100567.05;;;3.55;87.16
74790;BME280;63318;52.406;13.416;2022-12-07T08:47:17;100570.47;;;3.58;87.18
74790;BME280;63318;52.406;13.416;2022-12-07T08:49:48;100569.10;;;3.62;87.28
74790;BME280;63318;52.406;13.416;2022-12-07T08:52:18;100574.06;;;3.64;87.34
74790;BME280;63318;52.406;13.416;2022-12-07T08:54:47;100575.70;;;3.61;87.61
74790;BME280;63318;52.406;13.416;2022-12-07T08:57:15;100576.13;;;3.60;87.53
74790;BME280;63318;52.406;13.416;2022-12-07T08:59:43;100580.01;;;3.61;87.56
74790;BME280;63318;52.406;13.416;2022-12-07T09:02:11;100578.73;;;3.61;87.52
74790;BME280;63318;52.406;13.416;2022-12-07T09:04:40;100583.59;;;3.60;87.23
74790;BME280;63318;52.406;13.416;2022-12-07T09:07:08;100589.80;;;3.56;87.00
74790;BME280;63318;52.406;13.416;2022-12-07T09:09:36;100594.69;;;3.52;86.99
74790;BME280;63318;52.406;13.416;2022-12-07T09:12:05;100594.95;;;3.47;86.89
74790;BME280;63318;52.406;13.416;2022-12-07T09:14:33;100593.59;;;3.44;86.91
74790;BME280;63318;52.406;13.416;2022-12-07T09:17:08;100598.16;;;3.41;86.76
74790;BME280;63318;52.406;13.416;2022-12-07T09:19:37;100598.69;;;3.36;86.61
74790;BME280;63318;52.406;13.416;2022-12-07T09:22:06;100602.13;;;3.31;86.72
74790;BME280;63318;52.406;13.416;2022-12-07T09:24:34;100607.60;;;3.33;86.63
74790;BME280;63318;52.406;13.416;2022-12-07T09:27:02;100607.79;;;3.45;86.17
74790;BME280;63318;52.406;13.416;2022-12-07T09:29:30;100604.90;;;3.48;86.18
74790;BME280;63318;52.406;13.416;2022-12-07T09:31:58;100605.42;;;3.50;86.20
74790;BME280;63318;52.406;13.416;2022-12-07T09:34:27;100608.13;;;3.53;86.30
74790;BME280;63318;52.406;13.416;2022-12-07T09:36:58;100608.64;;;3.56;86.30
74790;BME280;63318;52.406;13.416;2022-12-07T09:39:28;100608.80;;;3.58;86.13
74790;BME280;63318;52.406;13.416;2022-12-07T09:41:58;100607.90;;;3.55;86.08
74790;BME280;63318;52.406;13.416;2022-12-07T09:44:28;100613.06;;;3.55;86.11
74790;BME280;63318;52.406;13.416;2022-12-07T09:47:07;100617.45;;;3.55;85.79
74790;BME280;63318;52.406;13.416;2022-12-07T09:49:39;100612.52;;;3.53;85.49
74790;BME280;63318;52.406;13.416;2022-12-07T09:52:28;100616.94;;;3.52;85.53
74790;BME280;63318;52.406;13.416;2022-12-07T09:55:02;100625.40;;;3.50;85.45
74790;BME280;63318;52.406;13.416;2022-12-07T09:57:35;100629.01;;;3.48;85.23
74790;BME280;63318;52.406;13.416;2022-12-07T10:00:10;100630.38;;;3.45;85.15
74790;BME280;63318;52.406;13.416;2022-12-07T10:02:41;100633.09;;;3.44;85.19
74790;BME280;63318;52.406;13.416;2022-12-07T10:05:14;100632.52;;;3.56;84.94
74790;BME280;63318;52.406;13.416;2022-12-07T10:07:45;100638.23;;;3.61;84.73
74790;BME280;63318;52.406;13.416;2022-12-07T10:10:19;100640.91;;;3.63;84.88
74790;BME280;63318;52.406;13.416;2022-12-07T10:13:00;100638.20;;;3.66;84.93
74790;BME280;63318;52.406;13.416;2022-12-07T10:15:47;100633.86;;;3.70;84.76
74790;BME280;63318;52.406;13.416;2022-12-07T10:18:38;100631.47;;;3.65;84.87
74790;BME280;63318;52.406;13.416;2022-12-07T10:21:22;100630.97;;;3.61;84.57
74790;BME280;63318;52.406;13.416;2022-12-07T10:24:00;100633.67;;;3.58;84.79
74790;BME280;63318;52.406;13.416;2022-12-07T10:26:36;100632.61;;;3.52;84.64
74790;BME280;63318;52.406;13.416;2022-12-07T10:29:22;100638.74;;;3.50;84.38
74790;BME280;63318;52.406;13.416;2022-12-07T10:31:55;100641.60;;;3.46;84.31
74790;BME280;63318;52.406;13.416;2022-12-07T10:34:26;100639.80;;;3.43;84.12
74790;BME280;63318;52.406;13.416;2022-12-07T10:37:13;100638.06;;;3.42;84.17
74790;BME280;63318;52.406;13.416;2022-12-07T10:39:47;100638.34;;;3.40;83.99
74790;BME280;63318;52.406;13.416;2022-12-07T10:42:25;100637.98;;;3.37;83.99
74790;BME280;63318;52.406;13.416;2022-12-07T10:45:14;100627.50;;;3.35;83.81
74790;BME280;63318;52.406;13.416;2022-12-07T10:47:49;100627.54;;;3.35;83.83
74790;BME280;63318;52.406;13.416;2022-12-07T10:50:47;100622.29;;;3.43;83.79
74790;BME280;63318;52.406;13.416;2022-12-07T10:53:33;100624.65;;;3.61;83.50
74790;BME280;63318;52.406;13.416;2022-12-07T10:59:24;100621.81;;;3.75;83.78
74790;BME280;63318;52.406;13.416;2022-12-07T11:02:06;100623.02;;;3.85;83.75
74790;BME280;63318;52.406;13.416;2022-12-07T11:04:58;100616.93;;;3.91;83.92
74790;BME280;63318;52.406;13.416;2022-12-07T11:07:49;100614.23;;;3.91;84.06
74790;BME280;63318;52.406;13.416;2022-12-07T11:10:26;100613.17;;;3.96;84.08
74790;BME280;63318;52.406;13.416;2022-12-07T11:13:27;100613.92;;;4.00;83.88
74790;BME280;63318;52.406;13.416;2022-12-07T11:16:28;100609.80;;;4.04;84.00
74790;BME280;63318;52.406;13.416;2022-12-07T11:19:16;100611.23;;;4.06;83.76
74790;BME280;63318;52.406;13.416;2022-12-07T11:21:54;100608.27;;;4.06;83.60
74790;BME280;63318;52.406;13.416;2022-12-07T11:24:30;100607.83;;;4.06;83.61
74790;BME280;63318;52.406;13.416;2022-12-07T11:27:13;100609.20;;;4.07;83.34
74790;BME280;63318;52.406;13.416;2022-12-07T11:29:58;100603.20;;;4.08;83.40
74790;BME280;63318;52.406;13.416;2022-12-07T11:35:39;100597.55;;;4.06;83.30
74790;BME280;63318;52.406;13.416;2022-12-07T11:38:13;100594.47;;;4.06;83.38
74790;BME280;63318;52.406;13.416;2022-12-07T11:40:45;100592.99;;;4.06;83.34
74790;BME280;63318;52.406;13.416;2022-12-07T11:43:21;100594.59;;;4.09;83.17
74790;BME280;63318;52.406;13.416;2022-12-07T11:45:59;100590.63;;;4.24;82.76
74790;BME280;63318;52.406;13.416;2022-12-07T11:48:30;100595.91;;;4.27;82.85
74790;BME280;63318;52.406;13.416;2022-12-07T11:51:02;100591.84;;;4.27;82.95
74790;BME280;63318;52.406;13.416;2022-12-07T11:53:35;100594.05;;;4.31;83.07
74790;BME280;63318;52.406;13.416;2022-12-07T11:56:10;100588.65;;;4.38;82.98
74790;BME280;63318;52.406;13.416;2022-12-07T11:58:49;100587.70;;;4.42;82.77
74790;BME280;63318;52.406;13.416;2022-12-07T12:01:31;100585.88;;;4.45;83.16
74790;BME280;63318;52.406;13.416;2022-12-07T12:04:13;100585.79;;;4.48;83.08
74790;BME280;63318;52.406;13.416;2022-12-07T12:06:46;100584.63;;;4.48;82.95
74790;BME280;63318;52.406;13.416;2022-12-07T12:09:17;100581.40;;;4.44;82.70
74790;BME280;63318;52.406;13.416;2022-12-07T12:12:04;100576.05;;;4.42;82.64
74790;BME280;63318;52.406;13.416;2022-12-07T12:14:45;100574.95;;;4.40;82.56
74790;BME280;63318;52.406;13.416;2022-12-07T12:17:43;100573.39;;;4.38;82.46
74790;BME280;63318;52.406;13.416;2022-12-07T12:20:23;100569.16;;;4.37;82.51
74790;BME280;63318;52.406;13.416;2022-12-07T12:22:55;100569.10;;;4.36;82.46
74790;BME280;63318;52.406;13.416;2022-12-07T12:25:27;100568.21;;;4.34;82.38
74790;BME280;63318;52.406;13.416;2022-12-07T12:27:59;100571.38;;;4.30;82.17
74790;BME280;63318;52.406;13.416;2022-12-07T12:30:37;100567.41;;;4.28;82.24
74790;BME280;63318;52.406;13.416;2022-12-07T12:33:16;100571.59;;;4.39;82.03
74790;BME280;63318;52.406;13.416;2022-12-07T12:39:14;100570.30;;;4.49;82.08
74790;BME280;63318;52.406;13.416;2022-12-07T12:42:00;100568.75;;;4.56;82.30
74790;BME280;63318;52.406;13.416;2022-12-07T12:45:21;100566.52;;;4.64;82.35
74790;BME280;63318;52.406;13.416;2022-12-07T12:48:09;100566.87;;;4.66;82.52
74790;BME280;63318;52.406;13.416;2022-12-07T12:54:10;100558.41;;;4.72;82.39
74790;BME280;63318;52.406;13.416;2022-12-07T12:56:46;100557.81;;;4.75;82.31
74790;BME280;63318;52.406;13.416;2022-12-07T12:59:28;100558.60;;;4.76;82.15
74790;BME280;63318;52.406;13.416;2022-12-07T13:02:14;100555.70;;;4.74;82.12
74790;BME280;63318;52.406;13.416;2022-12-07T13:04:55;100555.40;;;4.73;81.91
74790;BME280;63318;52.406;13.416;2022-12-07T13:07:52;100555.23;;;4.70;81.68
74790;BME280;63318;52.406;13.416;2022-12-07T13:10:29;100556.16;;;4.68;81.91
74790;BME280;63318;52.406;13.416;2022-12-07T13:13:02;100554.98;;;4.66;81.70
74790;BME280;63318;52.406;13.416;2022-12-07T13:15:36;100556.54;;;4.63;81.58
74790;BME280;63318;52.406;13.416;2022-12-07T13:18:24;100553.64;;;4.61;81.67
74790;BME280;63318;52.406;13.416;2022-12-07T13:20:57;100553.46;;;4.58;81.48
74790;BME280;63318;52.406;13.416;2022-12-07T13:23:35;100549.48;;;4.57;81.58
74790;BME280;63318;52.406;13.416;2022-12-07T13:26:17;100549.69;;;4.54;81.68
74790;BME280;63318;52.406;13.416;2022-12-07T13:28:47;100545.63;;;4.52;81.52
74790;BME280;63318;52.406;13.416;2022-12-07T13:31:29;100541.15;;;4.56;81.49